CES258 ZYHB-ZSPD
Flight info
| Callsign | CES258 |
|---|---|
| Flight time | N/A |
| Altitude | 38100 |
| Route | DUK19D DUKIR W655 NIMEM W205 NULRA A588 UDETI W106 MAKNO W5 TAO/K0902S1190 DCT URBAD W172 LATUX W108 MATNU W115 PINOT |
| Aircraft | A346/H-SDE2E3FGHIJ3J4J5M1RWXY/LB1D1 |
Departure
| Time | N/A |
|---|---|
| Airport | Harbin Taiping International Airport (ZYHB) |
Arrival
| Time | 2026-05-04 08:40 |
|---|---|
| Airport | Shanghai Pudong International Airport (ZSPD) |
| Time | Latitude | Longitude | Altitude | Speed | Heading |
|---|---|---|---|---|---|
| 2026-05-04 06:25 | 44.88982 | 125.94510 | 22536 ft | 498 kts | 182° |
| 2026-05-04 06:25 | 44.85496 | 125.94480 | 23154 ft | 503 kts | 182° |
| 2026-05-04 06:26 | 44.81978 | 125.94450 | 23727 ft | 507 kts | 182° |
| 2026-05-04 06:26 | 44.78446 | 125.94419 | 24288 ft | 510 kts | 182° |
| 2026-05-04 06:26 | 44.74883 | 125.94222 | 24846 ft | 513 kts | 186° |
| 2026-05-04 06:26 | 44.71322 | 125.93727 | 25383 ft | 515 kts | 191° |
| 2026-05-04 06:27 | 44.57006 | 125.90553 | 27484 ft | 529 kts | 192° |
| 2026-05-04 06:28 | 44.53349 | 125.89751 | 28001 ft | 533 kts | 192° |
| 2026-05-04 06:28 | 44.49671 | 125.88945 | 28492 ft | 537 kts | 192° |
| 2026-05-04 06:28 | 44.45965 | 125.88134 | 28980 ft | 541 kts | 192° |
| 2026-05-04 06:28 | 44.42242 | 125.87320 | 29557 ft | 542 kts | 192° |
| 2026-05-04 06:29 | 44.38523 | 125.86511 | 30266 ft | 539 kts | 193° |
| 2026-05-04 06:29 | 44.34832 | 125.85713 | 30984 ft | 536 kts | 193° |
| 2026-05-04 06:29 | 44.31152 | 125.84920 | 31637 ft | 534 kts | 193° |
| 2026-05-04 06:29 | 44.27476 | 125.84125 | 32200 ft | 535 kts | 193° |
| 2026-05-04 06:30 | 44.23796 | 125.83326 | 32709 ft | 536 kts | 193° |
| 2026-05-04 06:30 | 44.20105 | 125.82545 | 33252 ft | 537 kts | 192° |
| 2026-05-04 06:30 | 44.16373 | 125.82089 | 33792 ft | 540 kts | 186° |
| 2026-05-04 06:30 | 44.12612 | 125.82108 | 34301 ft | 542 kts | 180° |
| 2026-05-04 06:31 | 44.08859 | 125.82627 | 34863 ft | 541 kts | 174° |
| 2026-05-04 06:31 | 44.05177 | 125.83632 | 35481 ft | 538 kts | 168° |
| 2026-05-04 06:31 | 44.01529 | 125.84900 | 36153 ft | 533 kts | 167° |
| 2026-05-04 06:31 | 43.97943 | 125.86080 | 36746 ft | 527 kts | 172° |
| 2026-05-04 06:32 | 43.94331 | 125.86803 | 37209 ft | 522 kts | 178° |
| 2026-05-04 06:33 | 43.70186 | 125.80097 | 37808 ft | 502 kts | 212° |
| 2026-05-04 06:34 | 43.63992 | 125.75632 | 37812 ft | 502 kts | 212° |
| 2026-05-04 06:34 | 43.57797 | 125.71191 | 37822 ft | 502 kts | 212° |
| 2026-05-04 06:36 | 43.33034 | 125.53641 | 37830 ft | 501 kts | 212° |
| 2026-05-04 06:37 | 43.27832 | 125.49977 | 37831 ft | 501 kts | 212° |
| 2026-05-04 06:37 | 43.21625 | 125.45614 | 37817 ft | 501 kts | 212° |
| 2026-05-04 06:38 | 43.15456 | 125.41290 | 37823 ft | 501 kts | 212° |
| 2026-05-04 06:40 | 42.83905 | 125.19330 | 37842 ft | 500 kts | 212° |
| 2026-05-04 06:41 | 42.77722 | 125.15007 | 37857 ft | 500 kts | 212° |
| 2026-05-04 06:41 | 42.71525 | 125.10641 | 37861 ft | 500 kts | 212° |
| 2026-05-04 06:42 | 42.65350 | 125.06308 | 37859 ft | 499 kts | 212° |
| 2026-05-04 06:44 | 42.40634 | 124.89093 | 37876 ft | 499 kts | 212° |
| 2026-05-04 06:44 | 42.34457 | 124.84816 | 37863 ft | 498 kts | 212° |
| 2026-05-04 06:45 | 42.28293 | 124.80559 | 37890 ft | 497 kts | 212° |
| 2026-05-04 06:45 | 42.22160 | 124.76330 | 37895 ft | 497 kts | 212° |
| 2026-05-04 06:46 | 42.15994 | 124.72089 | 37875 ft | 497 kts | 212° |
| 2026-05-04 06:46 | 42.09829 | 124.67861 | 37894 ft | 497 kts | 212° |
| 2026-05-04 06:48 | 41.85539 | 124.50229 | 37908 ft | 495 kts | 214° |
| 2026-05-04 06:50 | 41.61622 | 124.32078 | 37924 ft | 493 kts | 214° |
| 2026-05-04 06:51 | 41.55650 | 124.27570 | 37930 ft | 493 kts | 214° |
| 2026-05-04 06:51 | 41.49676 | 124.23074 | 37922 ft | 493 kts | 214° |
| 2026-05-04 06:52 | 41.43694 | 124.18582 | 37930 ft | 493 kts | 214° |
| 2026-05-04 06:52 | 41.37703 | 124.14126 | 37936 ft | 493 kts | 214° |
| 2026-05-04 06:53 | 41.31711 | 124.09782 | 37942 ft | 493 kts | 213° |
| 2026-05-04 06:53 | 41.25679 | 124.05428 | 37946 ft | 493 kts | 213° |
| 2026-05-04 06:54 | 41.19645 | 124.01075 | 37929 ft | 493 kts | 213° |
| 2026-05-04 06:54 | 41.13619 | 123.96734 | 37949 ft | 493 kts | 213° |
| 2026-05-04 06:55 | 41.07578 | 123.92393 | 37959 ft | 491 kts | 213° |
| 2026-05-04 06:55 | 41.01551 | 123.88069 | 37938 ft | 490 kts | 213° |
| 2026-05-04 06:57 | 40.77685 | 123.70930 | 37968 ft | 486 kts | 214° |
| 2026-05-04 06:58 | 40.72771 | 123.67298 | 37971 ft | 486 kts | 214° |
| 2026-05-04 06:58 | 40.65920 | 123.62266 | 37972 ft | 484 kts | 214° |
| 2026-05-04 06:59 | 40.60028 | 123.57957 | 37977 ft | 484 kts | 214° |
| 2026-05-04 06:59 | 40.54138 | 123.53646 | 37972 ft | 484 kts | 214° |
| 2026-05-04 07:01 | 40.30670 | 123.36558 | 37988 ft | 481 kts | 214° |
| 2026-05-04 07:02 | 40.24806 | 123.32312 | 37974 ft | 481 kts | 214° |
| 2026-05-04 07:02 | 40.18988 | 123.28110 | 37991 ft | 481 kts | 214° |
| 2026-05-04 07:03 | 40.13123 | 123.23883 | 37998 ft | 481 kts | 214° |
| 2026-05-04 07:03 | 40.07254 | 123.19663 | 38001 ft | 481 kts | 214° |
| 2026-05-04 07:04 | 40.02384 | 123.16149 | 38005 ft | 481 kts | 214° |
| 2026-05-04 07:04 | 39.96546 | 123.11886 | 38005 ft | 481 kts | 214° |
| 2026-05-04 07:05 | 39.90689 | 123.07619 | 38000 ft | 482 kts | 214° |
| 2026-05-04 07:05 | 39.84830 | 123.03366 | 38007 ft | 482 kts | 214° |
| 2026-05-04 07:06 | 39.76044 | 122.97009 | 38009 ft | 481 kts | 214° |
| 2026-05-04 07:07 | 39.70185 | 122.92781 | 38016 ft | 481 kts | 214° |
| 2026-05-04 07:09 | 39.46724 | 122.75935 | 38021 ft | 481 kts | 214° |
| 2026-05-04 07:09 | 39.40867 | 122.71753 | 38038 ft | 480 kts | 214° |
| 2026-05-04 07:10 | 39.35015 | 122.67582 | 38047 ft | 480 kts | 214° |
| 2026-05-04 07:12 | 39.12142 | 122.50012 | 38056 ft | 478 kts | 217° |
| 2026-05-04 07:12 | 39.06489 | 122.45509 | 38065 ft | 478 kts | 217° |
| 2026-05-04 07:13 | 39.00835 | 122.41013 | 38062 ft | 477 kts | 217° |
| 2026-05-04 07:13 | 38.95193 | 122.36538 | 38072 ft | 476 kts | 217° |
| 2026-05-04 07:14 | 38.81076 | 122.25363 | 38081 ft | 475 kts | 216° |
| 2026-05-04 07:15 | 38.75652 | 122.20595 | 38088 ft | 469 kts | 225° |
| 2026-05-04 07:15 | 38.71197 | 122.14649 | 38081 ft | 462 kts | 236° |
| 2026-05-04 07:16 | 38.67850 | 122.07723 | 38092 ft | 454 kts | 248° |
| 2026-05-04 07:16 | 38.65681 | 122.00164 | 38102 ft | 452 kts | 256° |
| 2026-05-04 07:17 | 38.63944 | 121.92433 | 38091 ft | 451 kts | 257° |
| 2026-05-04 07:17 | 38.62222 | 121.84708 | 38086 ft | 451 kts | 257° |
| 2026-05-04 07:18 | 38.60493 | 121.76981 | 38083 ft | 452 kts | 257° |
| 2026-05-04 07:18 | 38.58752 | 121.69232 | 38089 ft | 453 kts | 257° |
| 2026-05-04 07:19 | 38.57003 | 121.61477 | 38083 ft | 453 kts | 256° |
| 2026-05-04 07:19 | 38.55245 | 121.53713 | 38083 ft | 453 kts | 256° |
| 2026-05-04 07:20 | 38.53493 | 121.46006 | 38082 ft | 455 kts | 256° |
| 2026-05-04 07:20 | 38.51724 | 121.38243 | 38082 ft | 454 kts | 256° |
| 2026-05-04 07:22 | 38.42862 | 121.07895 | 38079 ft | 467 kts | 243° |
| 2026-05-04 07:23 | 38.39439 | 121.00828 | 38099 ft | 468 kts | 241° |
| 2026-05-04 07:23 | 38.35967 | 120.93795 | 38096 ft | 469 kts | 241° |
| 2026-05-04 07:24 | 38.32492 | 120.86773 | 38101 ft | 470 kts | 241° |
| 2026-05-04 07:24 | 38.28816 | 120.79885 | 38094 ft | 471 kts | 235° |
| 2026-05-04 07:26 | 38.07038 | 120.60872 | 38101 ft | 487 kts | 205° |
| 2026-05-04 07:27 | 38.00533 | 120.58315 | 38103 ft | 492 kts | 198° |
| 2026-05-04 07:27 | 37.93774 | 120.56735 | 38102 ft | 496 kts | 192° |
| 2026-05-04 07:28 | 37.86864 | 120.56068 | 38113 ft | 499 kts | 188° |
| 2026-05-04 07:28 | 37.79935 | 120.55560 | 38112 ft | 498 kts | 188° |
| 2026-05-04 07:29 | 37.73000 | 120.55045 | 38098 ft | 498 kts | 188° |
| 2026-05-04 07:29 | 37.66112 | 120.54507 | 37924 ft | 490 kts | 189° |
| 2026-05-04 07:30 | 37.62785 | 120.54071 | 37316 ft | 486 kts | 192° |
| 2026-05-04 07:30 | 37.59422 | 120.53557 | 36526 ft | 488 kts | 191° |
| 2026-05-04 07:30 | 37.56045 | 120.53044 | 35722 ft | 490 kts | 191° |
| 2026-05-04 07:30 | 37.52646 | 120.52531 | 34958 ft | 492 kts | 191° |
| 2026-05-04 07:31 | 37.49241 | 120.52019 | 34423 ft | 495 kts | 191° |
| 2026-05-04 07:31 | 37.45803 | 120.51503 | 34179 ft | 500 kts | 191° |
| 2026-05-04 07:33 | 37.21407 | 120.47889 | 36109 ft | 498 kts | 191° |
| 2026-05-04 07:33 | 37.17944 | 120.47373 | 36114 ft | 498 kts | 191° |
| 2026-05-04 07:33 | 37.11109 | 120.46359 | 36114 ft | 498 kts | 191° |
| 2026-05-04 07:34 | 37.04227 | 120.45342 | 36118 ft | 498 kts | 191° |
| 2026-05-04 07:34 | 36.97338 | 120.44325 | 36120 ft | 498 kts | 191° |
| 2026-05-04 07:35 | 36.90457 | 120.43313 | 36120 ft | 498 kts | 191° |
| 2026-05-04 07:35 | 36.83579 | 120.42303 | 36122 ft | 498 kts | 191° |
| 2026-05-04 07:36 | 36.76701 | 120.41296 | 36105 ft | 498 kts | 191° |
| 2026-05-04 07:38 | 36.49118 | 120.37710 | 36133 ft | 501 kts | 186° |
| 2026-05-04 07:38 | 36.42143 | 120.37461 | 36137 ft | 501 kts | 186° |
| 2026-05-04 07:39 | 36.35150 | 120.37602 | 36123 ft | 506 kts | 179° |
| 2026-05-04 07:39 | 36.28167 | 120.39056 | 36139 ft | 512 kts | 170° |
| 2026-05-04 07:40 | 36.21415 | 120.41853 | 36154 ft | 517 kts | 162° |
| 2026-05-04 07:40 | 36.14733 | 120.45119 | 36160 ft | 514 kts | 166° |
| 2026-05-04 07:41 | 36.07864 | 120.47389 | 36154 ft | 509 kts | 173° |
| 2026-05-04 07:41 | 36.00927 | 120.49168 | 36161 ft | 509 kts | 173° |
| 2026-05-04 07:42 | 35.94024 | 120.51169 | 36171 ft | 512 kts | 168° |
| 2026-05-04 07:42 | 35.87272 | 120.54098 | 36166 ft | 517 kts | 161° |
| 2026-05-04 07:43 | 35.80664 | 120.57601 | 36169 ft | 516 kts | 161° |
| 2026-05-04 07:43 | 35.74044 | 120.61054 | 36178 ft | 518 kts | 159° |
| 2026-05-04 07:44 | 35.67651 | 120.65203 | 36179 ft | 520 kts | 155° |
| 2026-05-04 07:44 | 35.61319 | 120.69538 | 36154 ft | 520 kts | 155° |
| 2026-05-04 07:45 | 35.54981 | 120.73837 | 36179 ft | 520 kts | 155° |
| 2026-05-04 07:45 | 35.48601 | 120.78001 | 36182 ft | 517 kts | 159° |
| 2026-05-04 07:46 | 35.42053 | 120.81437 | 36182 ft | 515 kts | 162° |
| 2026-05-04 07:46 | 35.35404 | 120.84723 | 36170 ft | 515 kts | 163° |
| 2026-05-04 07:47 | 35.28764 | 120.88006 | 36184 ft | 514 kts | 163° |
| 2026-05-04 07:49 | 35.02220 | 121.01140 | 36184 ft | 514 kts | 163° |
| 2026-05-04 07:49 | 34.95589 | 121.04422 | 36190 ft | 514 kts | 163° |
| 2026-05-04 07:50 | 34.88956 | 121.07701 | 36193 ft | 514 kts | 163° |
| 2026-05-04 07:50 | 34.82326 | 121.10979 | 36182 ft | 514 kts | 163° |
| 2026-05-04 07:51 | 34.75692 | 121.14250 | 36191 ft | 514 kts | 163° |
| 2026-05-04 07:51 | 34.69101 | 121.17492 | 36196 ft | 514 kts | 163° |
| 2026-05-04 07:52 | 34.62469 | 121.20750 | 36197 ft | 514 kts | 163° |
| 2026-05-04 07:52 | 34.55833 | 121.24004 | 36196 ft | 514 kts | 163° |
| 2026-05-04 07:54 | 34.29353 | 121.36943 | 36189 ft | 512 kts | 164° |
| 2026-05-04 07:55 | 34.22740 | 121.40158 | 36195 ft | 512 kts | 165° |
| 2026-05-04 07:55 | 34.16131 | 121.43366 | 36196 ft | 512 kts | 165° |
| 2026-05-04 07:56 | 34.09523 | 121.46568 | 36196 ft | 512 kts | 165° |
| 2026-05-04 07:56 | 34.04031 | 121.49231 | 36185 ft | 511 kts | 165° |
| 2026-05-04 07:57 | 33.97440 | 121.52416 | 36193 ft | 511 kts | 165° |
| 2026-05-04 07:57 | 33.90851 | 121.55598 | 36198 ft | 509 kts | 165° |
| 2026-05-04 07:58 | 33.84269 | 121.58764 | 36201 ft | 509 kts | 165° |
| 2026-05-04 07:58 | 33.77691 | 121.61934 | 36192 ft | 508 kts | 166° |
| 2026-05-04 07:59 | 33.71121 | 121.65083 | 36200 ft | 508 kts | 166° |
| 2026-05-04 07:59 | 33.64569 | 121.68282 | 36199 ft | 509 kts | 166° |
| 2026-05-04 08:00 | 33.58015 | 121.71498 | 36210 ft | 509 kts | 166° |
| 2026-05-04 08:02 | 33.31913 | 121.84218 | 36199 ft | 506 kts | 167° |
| 2026-05-04 08:02 | 33.25395 | 121.87388 | 36190 ft | 505 kts | 167° |
| 2026-05-04 08:03 | 33.18884 | 121.90543 | 36201 ft | 505 kts | 167° |
| 2026-05-04 08:03 | 33.12370 | 121.93694 | 36200 ft | 505 kts | 167° |
| 2026-05-04 08:04 | 33.05856 | 121.96842 | 36205 ft | 505 kts | 167° |
| 2026-05-04 08:04 | 32.99347 | 121.99989 | 36197 ft | 505 kts | 168° |
| 2026-05-04 08:05 | 32.92846 | 122.03121 | 36201 ft | 504 kts | 168° |
| 2026-05-04 08:05 | 32.86333 | 122.06253 | 36203 ft | 504 kts | 168° |
| 2026-05-04 08:06 | 32.79880 | 122.09360 | 36193 ft | 502 kts | 168° |
| 2026-05-04 08:06 | 32.73412 | 122.12469 | 36185 ft | 500 kts | 169° |
| 2026-05-04 08:08 | 32.47600 | 122.24792 | 36187 ft | 500 kts | 169° |
| 2026-05-04 08:11 | 32.18534 | 122.38593 | 36199 ft | 500 kts | 169° |
| 2026-05-04 08:11 | 32.08844 | 122.43171 | 36204 ft | 500 kts | 169° |
| 2026-05-04 08:12 | 32.02430 | 122.46196 | 36198 ft | 500 kts | 169° |
| 2026-05-04 08:12 | 31.95978 | 122.49235 | 36204 ft | 500 kts | 169° |
| 2026-05-04 08:13 | 31.89514 | 122.52277 | 36202 ft | 500 kts | 169° |
| 2026-05-04 08:13 | 31.83052 | 122.55313 | 36199 ft | 500 kts | 170° |
| 2026-05-04 08:14 | 31.76590 | 122.58346 | 36202 ft | 500 kts | 170° |
| 2026-05-04 08:16 | 31.51711 | 122.63939 | 36198 ft | 413 kts | 230° |
| 2026-05-04 08:16 | 31.50121 | 122.61208 | 36230 ft | 405 kts | 249° |
| 2026-05-04 08:16 | 31.49375 | 122.58032 | 36248 ft | 403 kts | 256° |
| 2026-05-04 08:17 | 31.47687 | 122.51900 | 35980 ft | 386 kts | 249° |
| 2026-05-04 08:17 | 31.46622 | 122.49021 | 35351 ft | 386 kts | 247° |
| 2026-05-04 08:17 | 31.45272 | 122.46280 | 34503 ft | 395 kts | 234° |
| 2026-05-04 08:19 | 31.29076 | 122.35895 | 30327 ft | 361 kts | 214° |
| 2026-05-04 08:19 | 31.26847 | 122.34607 | 29689 ft | 363 kts | 214° |
| 2026-05-04 08:20 | 31.24569 | 122.33299 | 29007 ft | 365 kts | 213° |
| 2026-05-04 08:20 | 31.22281 | 122.31991 | 28350 ft | 366 kts | 213° |
| 2026-05-04 08:20 | 31.19986 | 122.30682 | 27702 ft | 368 kts | 213° |
| 2026-05-04 08:20 | 31.17685 | 122.29371 | 27064 ft | 369 kts | 213° |
| 2026-05-04 08:21 | 31.15378 | 122.28058 | 26438 ft | 369 kts | 213° |
| 2026-05-04 08:21 | 31.13065 | 122.26741 | 25831 ft | 370 kts | 213° |
| 2026-05-04 08:21 | 31.10752 | 122.25425 | 25237 ft | 370 kts | 213° |
| 2026-05-04 08:21 | 31.08431 | 122.24106 | 24632 ft | 371 kts | 214° |
| 2026-05-04 08:22 | 31.06105 | 122.22781 | 24053 ft | 373 kts | 214° |
| 2026-05-04 08:22 | 31.03768 | 122.21449 | 23450 ft | 374 kts | 214° |
| 2026-05-04 08:24 | 30.87211 | 122.12042 | 19021 ft | 382 kts | 209° |
| 2026-05-04 08:24 | 30.84817 | 122.10689 | 18452 ft | 383 kts | 208° |
| 2026-05-04 08:24 | 30.82412 | 122.09333 | 17782 ft | 384 kts | 208° |
| 2026-05-04 08:24 | 30.80003 | 122.07972 | 17121 ft | 385 kts | 210° |
| 2026-05-04 08:25 | 30.77864 | 122.06160 | 16429 ft | 379 kts | 231° |
| 2026-05-04 08:25 | 30.76587 | 122.03528 | 15793 ft | 373 kts | 255° |
| 2026-05-04 08:25 | 30.76382 | 122.00564 | 15074 ft | 364 kts | 280° |
| 2026-05-04 08:25 | 30.77077 | 121.97797 | 14433 ft | 349 kts | 296° |
| 2026-05-04 08:26 | 30.78413 | 121.95518 | 13804 ft | 336 kts | 315° |
| 2026-05-04 08:27 | 30.91676 | 121.97245 | 11238 ft | 260 kts | 23° |
| 2026-05-04 08:28 | 30.93282 | 121.98176 | 10917 ft | 259 kts | 23° |
| 2026-05-04 08:28 | 30.94913 | 121.99120 | 10358 ft | 263 kts | 23° |
| 2026-05-04 08:28 | 30.96447 | 122.00282 | 9826 ft | 264 kts | 39° |
| 2026-05-04 08:28 | 30.97652 | 122.01901 | 9270 ft | 266 kts | 54° |
| 2026-05-04 08:29 | 30.98432 | 122.03823 | 8736 ft | 267 kts | 70° |
| 2026-05-04 08:29 | 30.98748 | 122.05962 | 8193 ft | 269 kts | 87° |
| 2026-05-04 08:29 | 30.98551 | 122.08127 | 7646 ft | 270 kts | 103° |
| 2026-05-04 08:31 | 30.89620 | 122.08707 | 3075 ft | 256 kts | 249° |
| 2026-05-04 08:33 | 30.85397 | 121.96470 | 2009 ft | 194 kts | 247° |
| 2026-05-04 08:33 | 30.85219 | 121.94989 | 1990 ft | 182 kts | 281° |
| 2026-05-04 08:35 | 30.92762 | 121.90432 | 1981 ft | 182 kts | 339° |
| 2026-05-04 08:35 | 30.93967 | 121.89981 | 2006 ft | 181 kts | 338° |
| 2026-05-04 08:35 | 30.95167 | 121.89527 | 1981 ft | 180 kts | 338° |
| 2026-05-04 08:35 | 30.96361 | 121.89074 | 1989 ft | 181 kts | 338° |
| 2026-05-04 08:37 | 31.03643 | 121.86306 | 1873 ft | 184 kts | 341° |
| 2026-05-04 08:37 | 31.04846 | 121.85848 | 1636 ft | 177 kts | 342° |
| 2026-05-04 08:37 | 31.05981 | 121.85417 | 1369 ft | 165 kts | 341° |
| 2026-05-04 08:38 | 31.07036 | 121.85017 | 1152 ft | 157 kts | 341° |
| 2026-05-04 08:38 | 31.08085 | 121.84619 | 977 ft | 159 kts | 341° |
| 2026-05-04 08:38 | 31.09119 | 121.84218 | 790 ft | 158 kts | 342° |
| 2026-05-04 08:40 | 31.14435 | 121.82114 | 31 ft | 22 kts | 313° |
| 2026-05-04 08:40 | 31.14550 | 121.81983 | 29 ft | 24 kts | 327° |
| 2026-05-04 08:40 | 31.14710 | 121.81905 | 30 ft | 26 kts | 342° |
| 2026-05-04 08:41 | 31.14891 | 121.81837 | 30 ft | 28 kts | 342° |
| 2026-05-04 08:41 | 31.14971 | 121.81709 | 30 ft | 21 kts | 254° |
| 2026-05-04 08:41 | 31.14933 | 121.81568 | 30 ft | 19 kts | 252° |
| 2026-05-04 08:41 | 31.14893 | 121.81429 | 30 ft | 17 kts | 252° |
| 2026-05-04 08:42 | 31.14854 | 121.81289 | 31 ft | 20 kts | 253° |
| 2026-05-04 08:42 | 31.14818 | 121.81152 | 31 ft | 17 kts | 252° |
| 2026-05-04 08:42 | 31.14794 | 121.81051 | 31 ft | 8 kts | 255° |
| 2026-05-04 08:42 | 31.14783 | 121.80972 | 31 ft | 11 kts | 265° |
| 2026-05-04 08:43 | 31.14783 | 121.80964 | 31 ft | 0 kts | 265° |